CheckWX is a tool to help pilots better visualize weather data.  It is not intended as a substitute for an official pre-flight weather briefing.

16:11:49 UTC

CYAS METAR
Kangirsuk Supplementary Aviation Weather Reporting
Kangirsuk, Canada
Current

12 mins ago

CYAS 221600Z 13007KT 15SM BKN037 BKN080 12/08 A2978 RMK SC6AC1 AC TR SLP092
Observed
Jul-22 @ 16:00 UTC
Wind
  • 130° at 7 KTS
Visibility
15 SM
Flight Rules
VFR
Cloud Levels
  • Broken at 3,700' AGL
  • Broken at 8,000' AGL
Temperature
12°C / 54°F
Dewpoint
C / 46°F
Humidity
77%
Altimeter
29.78" Hg
Pressure
1008.42 hPa
Previous

1 hour ago

CYAS 221500Z 19004KT 160V260 15SM BKN035 11/07 A2978 RMK SC7 SLP091
Observed
Jul-22 @ 15:00 UTC
Wind
  • 190° at 4 KTS
Visibility
15 SM
Flight Rules
VFR
Cloud Levels
  • Broken at 3,500' AGL
Temperature
11°C / 52°F
Dewpoint
C / 45°F
Humidity
77%
Altimeter
29.78" Hg
Pressure
1008.42 hPa
Previous

2 hours ago

CYAS 221400Z 19004KT 15SM BKN034 11/08 A2977 RMK SC7 SLP089
Observed
Jul-22 @ 14:00 UTC
Wind
  • 190° at 4 KTS
Visibility
15 SM
Flight Rules
VFR
Cloud Levels
  • Broken at 3,400' AGL
Temperature
11°C / 52°F
Dewpoint
C / 46°F
Humidity
82%
Altimeter
29.77" Hg
Pressure
1008.12 hPa